Amenia, New York
Current Conditions -  °F | °C
As of 11:53 AM on Monday 24 Nov 2014 (Local Time) from KPOU Reporting Station
Overcast Overcast  
Wind Chill: 68°   Ceiling: 4700
Heat Index: 68°   Visibility: 10mi
Dew Point: 59°   Wind: 7mph
Humidity: 73%   Direction: NA
Pressure: 29.58"   Gusts: NA
Location:  41.85°N, 73.55°W
Report Text: KPOU 241653Z VRB06KT 10SM FEW026 SCT030 OVC047 20/15 A2958 RMK AO2 SLP015 T02000150
Loading
Personal Weather Stations






























Interactive Weather Map New forecast layout! Learn more

10-Day Weather Forecast

Advertisements
Track Severe Weather on mobile